createdAt,value
2018-02-17T00:01:08.815Z,0
2018-02-17T00:02:17.891Z,0
2018-02-17T00:03:26.717Z,0
2018-02-17T00:04:35.541Z,0
2018-02-17T00:05:44.368Z,0
2018-02-17T00:06:53.510Z,0
2018-02-17T00:08:02.485Z,0
2018-02-17T00:09:11.312Z,0
2018-02-17T00:10:20.138Z,0
2018-02-17T00:11:28.969Z,0
2018-02-17T00:12:37.795Z,0
2018-02-17T00:13:46.621Z,0
2018-02-17T00:14:55.733Z,0
2018-02-17T00:16:04.556Z,0
2018-02-17T00:17:13.380Z,0
2018-02-17T00:18:22.208Z,0
2018-02-17T00:19:31.034Z,0
2018-02-17T00:20:39.862Z,0
2018-02-17T00:21:48.688Z,0
2018-02-17T00:22:57.793Z,0
2018-02-17T00:24:06.619Z,0
2018-02-17T00:25:15.446Z,0
2018-02-17T00:26:24.269Z,0
2018-02-17T00:27:33.093Z,0
2018-02-17T00:28:41.919Z,0
2018-02-17T00:29:50.742Z,0
2018-02-17T00:30:59.718Z,0
2018-02-17T00:32:08.547Z,0
2018-02-17T00:33:17.374Z,0
2018-02-17T00:34:26.198Z,0
2018-02-17T00:35:35.299Z,0
2018-02-17T00:36:44.128Z,0
2018-02-17T00:37:52.954Z,0
2018-02-17T00:39:02.057Z,0
2018-02-17T00:40:10.882Z,0
2018-02-17T00:41:19.708Z,0
2018-02-17T00:42:28.683Z,0
2018-02-17T00:43:37.508Z,0
2018-02-17T00:44:46.335Z,0
2018-02-17T00:45:55.436Z,0
2018-02-17T00:47:04.259Z,0
2018-02-17T00:48:13.484Z,0
2018-02-17T00:49:22.311Z,0
2018-02-17T00:50:31.134Z,0
2018-02-17T00:51:39.959Z,0
2018-02-17T00:52:48.784Z,0
2018-02-17T00:53:57.761Z,0
2018-02-17T00:55:06.585Z,0
2018-02-17T00:56:15.409Z,0
2018-02-17T00:57:24.238Z,0
2018-02-17T00:58:33.062Z,0
2018-02-17T00:59:42.091Z,0
2018-02-17T01:00:51.199Z,0
2018-02-17T01:02:00.024Z,0
2018-02-17T01:03:08.850Z,0
2018-02-17T01:04:17.676Z,0
2018-02-17T01:05:26.553Z,0
2018-02-17T01:06:35.379Z,0
2018-02-17T01:07:44.204Z,0
2018-02-17T01:08:53.028Z,0
2018-02-17T01:10:01.853Z,0
2018-02-17T01:11:10.727Z,0
2018-02-17T01:12:19.552Z,0
2018-02-17T01:13:28.377Z,0
2018-02-17T01:14:37.206Z,0
2018-02-17T01:15:46.028Z,0
2018-02-17T01:16:54.952Z,0
2018-02-17T01:18:03.779Z,0
2018-02-17T01:19:12.601Z,0
2018-02-17T01:20:21.427Z,0
2018-02-17T01:21:30.253Z,0
2018-02-17T01:22:39.076Z,0
2018-02-17T01:23:47.908Z,0
2018-02-17T01:24:56.731Z,0
2018-02-17T01:26:05.560Z,0
2018-02-17T01:27:14.383Z,0
2018-02-17T01:28:23.538Z,0
2018-02-17T01:29:32.366Z,0
2018-02-17T01:30:41.514Z,0
2018-02-17T01:31:50.344Z,0
2018-02-17T01:32:59.168Z,0
2018-02-17T01:34:08.148Z,0
2018-02-17T01:35:17.249Z,0
2018-02-17T01:36:26.072Z,0
2018-02-17T01:37:34.897Z,0
2018-02-17T01:38:43.719Z,0
2018-02-17T01:39:52.847Z,0
2018-02-17T01:41:01.701Z,0
2018-02-17T01:42:10.774Z,0
2018-02-17T01:43:19.600Z,0
2018-02-17T01:44:28.426Z,0
2018-02-17T01:45:37.251Z,0
2018-02-17T01:46:46.076Z,0
2018-02-17T01:47:55.176Z,0
2018-02-17T01:49:04.281Z,0
2018-02-17T01:50:13.099Z,0
2018-02-17T01:51:21.928Z,0
2018-02-17T01:52:30.749Z,0
2018-02-17T01:53:39.851Z,0
2018-02-17T01:54:48.676Z,0
2018-02-17T01:55:57.500Z,0
2018-02-17T01:57:06.473Z,0
2018-02-17T01:58:15.303Z,0
2018-02-17T01:59:24.405Z,0
2018-02-17T02:00:33.232Z,0
2018-02-17T02:01:42.057Z,0
2018-02-17T02:02:51.078Z,0
2018-02-17T02:03:59.901Z,0
2018-02-17T02:05:08.726Z,0
2018-02-17T02:06:17.550Z,0
2018-02-17T02:07:26.375Z,0
2018-02-17T02:08:35.483Z,0
2018-02-17T02:09:44.303Z,0
2018-02-17T02:10:53.126Z,0
2018-02-17T02:12:01.950Z,0
2018-02-17T02:13:10.775Z,0
2018-02-17T02:14:19.652Z,0
2018-02-17T02:15:28.475Z,0
2018-02-17T02:16:37.300Z,0
2018-02-17T02:17:46.123Z,0
2018-02-17T02:18:54.950Z,0
2018-02-17T02:20:03.925Z,0
2018-02-17T02:21:12.750Z,0
2018-02-17T02:22:21.573Z,0
2018-02-17T02:23:30.400Z,0
2018-02-17T02:24:39.225Z,0
2018-02-17T02:25:48.048Z,0
2018-02-17T02:26:56.873Z,0
2018-02-17T02:28:05.701Z,0
2018-02-17T02:29:14.806Z,0
2018-02-17T02:30:23.919Z,0
2018-02-17T02:31:32.739Z,0
2018-02-17T02:32:41.562Z,0
2018-02-17T02:33:50.387Z,0
2018-02-17T02:34:59.212Z,0
2018-02-17T02:36:08.038Z,0
2018-02-17T02:37:17.205Z,0
2018-02-17T02:38:26.042Z,0
2018-02-17T02:39:35.147Z,0
2018-02-17T02:40:43.970Z,0
2018-02-17T02:41:52.796Z,0
2018-02-17T02:43:01.770Z,0
2018-02-17T02:44:10.596Z,0
2018-02-17T02:45:19.418Z,0
2018-02-17T02:46:28.244Z,0
2018-02-17T02:47:37.067Z,0
2018-02-17T02:48:46.469Z,0
2018-02-17T02:49:55.293Z,0
2018-02-17T02:51:04.118Z,0
2018-02-17T02:52:12.945Z,0
2018-02-17T02:53:21.776Z,0
2018-02-17T02:54:30.648Z,0
2018-02-17T02:55:39.474Z,0
2018-02-17T02:56:48.299Z,0
2018-02-17T02:57:57.124Z,0
2018-02-17T02:59:05.947Z,0
2018-02-17T03:00:15.073Z,0
2018-02-17T03:01:23.901Z,0
2018-02-17T03:02:33.010Z,0
2018-02-17T03:03:41.836Z,0
2018-02-17T03:04:50.663Z,0
2018-02-17T03:05:59.792Z,0
2018-02-17T03:07:08.619Z,0
2018-02-17T03:08:17.445Z,0
2018-02-17T03:09:26.271Z,0
2018-02-17T03:10:35.101Z,0
2018-02-17T03:11:44.352Z,0
2018-02-17T03:12:53.176Z,0
2018-02-17T03:14:02.002Z,0
2018-02-17T03:15:10.825Z,0
2018-02-17T03:16:19.649Z,0
2018-02-17T03:17:28.797Z,0
2018-02-17T03:18:37.633Z,0
2018-02-17T03:19:46.458Z,0
2018-02-17T03:20:55.286Z,0
2018-02-17T03:22:04.109Z,0
2018-02-17T03:23:13.234Z,0
2018-02-17T03:24:22.059Z,0
2018-02-17T03:25:30.886Z,0
2018-02-17T03:26:39.712Z,0
2018-02-17T03:27:48.532Z,0
2018-02-17T03:28:57.507Z,0
2018-02-17T03:30:06.615Z,0
2018-02-17T03:31:15.443Z,0
2018-02-17T03:32:24.269Z,0
2018-02-17T03:33:33.094Z,0
2018-02-17T03:34:41.968Z,0
2018-02-17T03:35:50.795Z,0
2018-02-17T03:36:59.622Z,0
2018-02-17T03:38:08.450Z,0
2018-02-17T03:39:17.272Z,0
2018-02-17T03:40:26.149Z,0
2018-02-17T03:41:34.975Z,0
2018-02-17T03:42:43.798Z,0
2018-02-17T03:43:52.626Z,0
2018-02-17T03:45:01.737Z,0
2018-02-17T03:46:10.709Z,0
2018-02-17T03:47:19.808Z,0
2018-02-17T03:48:28.637Z,0
2018-02-17T03:49:37.740Z,0
2018-02-17T03:50:46.613Z,0
2018-02-17T03:51:55.588Z,0
2018-02-17T03:53:04.689Z,0
2018-02-17T03:54:13.516Z,0
2018-02-17T03:55:22.339Z,0
2018-02-17T03:56:31.163Z,0
2018-02-17T03:57:40.289Z,0
2018-02-17T03:58:49.116Z,0
2018-02-17T03:59:57.941Z,0
2018-02-17T04:01:06.767Z,0
2018-02-17T04:02:15.592Z,0
2018-02-17T04:03:24.846Z,0
2018-02-17T04:04:33.673Z,0
2018-02-17T04:05:42.497Z,0
2018-02-17T04:06:51.324Z,0
2018-02-17T04:08:00.149Z,0
2018-02-17T04:09:08.976Z,0
2018-02-17T04:10:17.801Z,0
2018-02-17T04:11:26.627Z,0
2018-02-17T04:12:35.452Z,0
2018-02-17T04:13:44.603Z,0
2018-02-17T04:14:53.579Z,0
2018-02-17T04:16:02.407Z,0
2018-02-17T04:17:11.230Z,0
2018-02-17T04:18:20.056Z,0
2018-02-17T04:19:28.885Z,0
2018-02-17T04:20:37.760Z,0
2018-02-17T04:21:46.586Z,0
2018-02-17T04:22:55.412Z,0
2018-02-17T04:24:04.239Z,0
2018-02-17T04:25:13.067Z,0
2018-02-17T04:26:21.995Z,0
2018-02-17T04:27:31.094Z,0
2018-02-17T04:28:39.922Z,0
2018-02-17T04:29:48.749Z,0
2018-02-17T04:30:57.575Z,0
2018-02-17T04:32:06.551Z,0
2018-02-17T04:33:15.374Z,0
2018-02-17T04:34:24.486Z,0
2018-02-17T04:35:33.313Z,0
2018-02-17T04:36:42.137Z,0
2018-02-17T04:37:51.114Z,0
2018-02-17T04:39:00.219Z,0
2018-02-17T04:40:09.045Z,0
2018-02-17T04:41:17.873Z,0
2018-02-17T04:42:26.702Z,0
2018-02-17T04:43:35.950Z,0
2018-02-17T04:44:44.778Z,0
2018-02-17T04:45:53.603Z,0
2018-02-17T04:47:02.428Z,0
2018-02-17T04:48:11.252Z,0
2018-02-17T04:49:20.129Z,0
2018-02-17T04:50:28.954Z,0
2018-02-17T04:51:37.781Z,0
2018-02-17T04:52:46.607Z,0
2018-02-17T04:53:55.433Z,0
2018-02-17T04:55:04.360Z,0
2018-02-17T04:56:13.186Z,0
2018-02-17T04:57:22.011Z,0
2018-02-17T04:58:31.113Z,0
2018-02-17T04:59:39.940Z,0
2018-02-17T05:00:48.918Z,0
2018-02-17T05:01:57.745Z,0
2018-02-17T05:03:06.571Z,0
2018-02-17T05:04:15.397Z,0
2018-02-17T05:05:24.223Z,0
2018-02-17T05:06:33.049Z,0
2018-02-17T05:07:41.875Z,0
2018-02-17T05:08:50.703Z,0
2018-02-17T05:09:59.527Z,0
2018-02-17T05:11:08.365Z,0
2018-02-17T05:12:17.180Z,0
2018-02-17T05:13:26.010Z,0
2018-02-17T05:14:35.109Z,0
2018-02-17T05:15:43.938Z,0
2018-02-17T05:16:52.762Z,0
2018-02-17T05:18:01.686Z,0
2018-02-17T05:19:10.511Z,0
2018-02-17T05:20:19.338Z,0
2018-02-17T05:21:28.162Z,0
2018-02-17T05:22:36.995Z,0
2018-02-17T05:23:46.244Z,0
2018-02-17T05:24:55.070Z,0
2018-02-17T05:26:03.899Z,0
2018-02-17T05:27:12.726Z,0
2018-02-17T05:28:21.550Z,0
2018-02-17T05:29:30.524Z,0
2018-02-17T05:30:39.352Z,0
2018-02-17T05:31:48.176Z,0
2018-02-17T05:32:57.001Z,0
2018-02-17T05:34:06.106Z,0
2018-02-17T05:35:14.981Z,0
2018-02-17T05:36:23.810Z,0
2018-02-17T05:37:32.629Z,0
2018-02-17T05:38:41.455Z,0
2018-02-17T05:39:50.283Z,0
2018-02-17T05:40:59.259Z,0
2018-02-17T05:42:08.084Z,0
2018-02-17T05:43:16.914Z,0
2018-02-17T05:44:25.741Z,0
2018-02-17T05:45:34.565Z,0
2018-02-17T05:46:43.492Z,0
2018-02-17T05:47:52.318Z,0
2018-02-17T05:49:01.144Z,0
2018-02-17T05:50:09.973Z,0
2018-02-17T05:51:18.798Z,0
2018-02-17T05:52:28.052Z,0
2018-02-17T05:53:36.879Z,0
2018-02-17T05:54:45.704Z,0
2018-02-17T05:55:54.531Z,0
2018-02-17T05:57:03.358Z,0
2018-02-17T05:58:12.284Z,0
2018-02-17T05:59:21.112Z,0
2018-02-17T06:00:29.936Z,0
2018-02-17T06:01:38.764Z,0
2018-02-17T06:02:48.146Z,0
2018-02-17T06:03:56.971Z,0
2018-02-17T06:05:05.797Z,0
2018-02-17T06:06:14.627Z,0
2018-02-17T06:07:23.451Z,0
2018-02-17T06:08:32.278Z,0
2018-02-17T06:09:41.101Z,0
2018-02-17T06:10:49.928Z,4
2018-02-17T06:11:58.757Z,4
2018-02-17T06:13:07.587Z,0
2018-02-17T06:14:16.685Z,4
2018-02-17T06:15:25.762Z,4
2018-02-17T06:16:34.857Z,4
2018-02-17T06:17:44.131Z,4
2018-02-17T06:18:53.270Z,4
2018-02-17T06:20:02.542Z,4
2018-02-17T06:21:11.868Z,8
2018-02-17T06:22:20.732Z,8
2018-02-17T06:23:29.837Z,12
2018-02-17T06:24:38.867Z,8
2018-02-17T06:25:50.737Z,12
2018-02-17T06:26:59.797Z,16
2018-02-17T06:28:08.652Z,16
2018-02-17T06:29:17.520Z,20
2018-02-17T06:30:26.442Z,24
2018-02-17T06:31:35.546Z,24
2018-02-17T06:32:44.848Z,32
2018-02-17T06:33:54.160Z,32
2018-02-17T06:35:03.300Z,40
2018-02-17T06:36:13.148Z,40
2018-02-17T06:37:22.655Z,48
2018-02-17T06:39:01.281Z,52
2018-02-17T06:40:10.941Z,56
2018-02-17T06:41:20.118Z,60
2018-02-17T06:42:29.010Z,64
2018-02-17T06:43:38.120Z,68
2018-02-17T06:44:47.639Z,76
2018-02-17T06:45:56.514Z,80
2018-02-17T06:47:05.602Z,88
2018-02-17T06:48:14.644Z,92
2018-02-17T06:49:23.812Z,96
2018-02-17T06:50:33.194Z,100
2018-02-17T06:51:42.246Z,104
2018-02-17T06:52:51.376Z,112
2018-02-17T06:54:00.654Z,120
2018-02-17T06:55:09.658Z,124
2018-02-17T06:56:19.239Z,136
2018-02-17T06:57:28.868Z,144
2018-02-17T06:58:37.971Z,156
2018-02-17T06:59:47.186Z,168
2018-02-17T07:01:25.855Z,184
2018-02-17T07:02:34.910Z,188
2018-02-17T07:03:44.167Z,192
2018-02-17T07:04:53.212Z,204
2018-02-17T07:06:02.400Z,216
2018-02-17T07:07:11.417Z,240
2018-02-17T07:08:21.135Z,264
2018-02-17T07:09:30.082Z,284
2018-02-17T07:10:38.972Z,304
2018-02-17T07:12:17.680Z,336
2018-02-17T07:13:26.889Z,348
2018-02-17T07:14:35.744Z,356
2018-02-17T07:15:44.574Z,360
2018-02-17T07:16:53.729Z,364
2018-02-17T07:18:02.556Z,364
2018-02-17T07:19:11.383Z,364
2018-02-17T07:20:20.209Z,368
2018-02-17T07:21:29.036Z,380
2018-02-17T07:22:38.014Z,392
2018-02-17T07:23:46.840Z,396
2018-02-17T07:24:55.667Z,400
2018-02-17T07:26:04.779Z,412
2018-02-17T07:27:13.880Z,424
2018-02-17T07:28:22.858Z,436
2018-02-17T07:29:31.684Z,460
2018-02-17T07:30:40.515Z,488
2018-02-17T07:31:49.345Z,512
2018-02-17T07:32:58.172Z,532
2018-02-17T07:34:07.106Z,540
2018-02-17T07:35:16.205Z,556
2018-02-17T07:36:25.034Z,568
2018-02-17T07:37:33.860Z,556
2018-02-17T07:38:42.686Z,568
2018-02-17T07:39:51.515Z,572
2018-02-17T07:41:00.342Z,572
2018-02-17T07:42:09.171Z,580
2018-02-17T07:43:17.999Z,592
2018-02-17T07:44:27.089Z,608
2018-02-17T07:45:35.913Z,620
2018-02-17T07:46:44.746Z,648
2018-02-17T07:47:53.576Z,688
2018-02-17T07:49:02.401Z,688
2018-02-17T07:50:11.229Z,712
2018-02-17T07:51:20.056Z,704
2018-02-17T07:52:28.885Z,704
2018-02-17T07:53:37.711Z,680
2018-02-17T07:54:46.542Z,668
2018-02-17T07:55:55.369Z,652
2018-02-17T07:57:04.473Z,668
2018-02-17T07:58:13.303Z,708
2018-02-17T07:59:22.127Z,696
2018-02-17T08:00:31.234Z,692
2018-02-17T08:01:40.060Z,700
2018-02-17T08:02:48.888Z,724
2018-02-17T08:03:57.712Z,788
2018-02-17T08:05:06.540Z,800
2018-02-17T08:06:15.369Z,816
2018-02-17T08:07:24.202Z,792
2018-02-17T08:08:33.022Z,820
2018-02-17T08:09:41.893Z,832
2018-02-17T08:10:50.679Z,844
2018-02-17T08:11:59.506Z,880
2018-02-17T08:13:08.336Z,932
2018-02-17T08:14:17.166Z,1004
2018-02-17T08:15:26.057Z,996
2018-02-17T08:16:34.832Z,1088
2018-02-17T08:17:43.658Z,1124
2018-02-17T08:18:52.486Z,1192
2018-02-17T08:20:01.314Z,1220
2018-02-17T08:21:10.394Z,1256
2018-02-17T08:22:19.229Z,1284
2018-02-17T08:23:28.057Z,1276
2018-02-17T08:24:36.885Z,1256
2018-02-17T08:25:45.728Z,1244
2018-02-17T08:26:54.710Z,1252
2018-02-17T08:28:03.538Z,1336
2018-02-17T08:29:12.377Z,1404
2018-02-17T08:30:21.498Z,1460
2018-02-17T08:31:30.346Z,1480
2018-02-17T08:32:39.493Z,1360
2018-02-17T08:33:48.619Z,1284
2018-02-17T08:34:57.445Z,1296
2018-02-17T08:36:06.277Z,1272
2018-02-17T08:37:15.105Z,1264
2018-02-17T08:38:23.998Z,1292
2018-02-17T08:39:32.839Z,1240
2018-02-17T08:40:41.664Z,1188
2018-02-17T08:41:50.493Z,1196
2018-02-17T08:42:59.346Z,1172
2018-02-17T08:44:08.475Z,1160
2018-02-17T08:45:17.325Z,1100
2018-02-17T08:46:26.263Z,1064
2018-02-17T08:47:35.067Z,1128
2018-02-17T08:48:44.151Z,1128
2018-02-17T08:49:53.167Z,1156
2018-02-17T08:51:01.995Z,1100
2018-02-17T08:52:10.824Z,1156
2018-02-17T08:53:19.669Z,1204
2018-02-17T08:54:28.498Z,1268
2018-02-17T08:55:37.326Z,1308
2018-02-17T08:56:46.154Z,1356
2018-02-17T08:57:55.002Z,1348
2018-02-17T08:59:03.815Z,1336
2018-02-17T09:00:12.922Z,1348
2018-02-17T09:01:21.753Z,1416
2018-02-17T09:02:31.136Z,1436
2018-02-17T09:03:39.971Z,1364
2018-02-17T09:04:48.820Z,1328
2018-02-17T09:05:57.648Z,1288
2018-02-17T09:07:06.952Z,1240
2018-02-17T09:08:16.085Z,1168
2018-02-17T09:09:24.915Z,1116
2018-02-17T09:10:33.742Z,1092
2018-02-17T09:11:42.580Z,1160
2018-02-17T09:12:51.511Z,1272
2018-02-17T09:14:00.370Z,1404
2018-02-17T09:15:09.477Z,1304
2018-02-17T09:16:18.305Z,1232
2018-02-17T09:17:27.407Z,1448
2018-02-17T09:18:36.285Z,1504
2018-02-17T09:19:45.395Z,1492
2018-02-17T09:20:54.220Z,1584
2018-02-17T09:22:03.049Z,1592
2018-02-17T09:23:11.879Z,1732
2018-02-17T09:24:21.008Z,1820
2018-02-17T09:25:29.838Z,1824
2018-02-17T09:26:38.665Z,1788
2018-02-17T09:27:47.495Z,1788
2018-02-17T09:28:56.326Z,2004
2018-02-17T09:30:05.731Z,1792
2018-02-17T09:31:14.578Z,1676
2018-02-17T09:32:23.385Z,1528
2018-02-17T09:33:32.217Z,1532
2018-02-17T09:34:41.044Z,1612
2018-02-17T09:35:49.872Z,1828
2018-02-17T09:36:58.702Z,1876
2018-02-17T09:38:07.530Z,1928
2018-02-17T09:39:16.359Z,1996
2018-02-17T09:40:25.188Z,2024
2018-02-17T09:41:34.290Z,2056
2018-02-17T09:42:43.119Z,1944
2018-02-17T09:43:51.949Z,2044
2018-02-17T09:45:00.772Z,2056
2018-02-17T09:46:09.601Z,1908
2018-02-17T09:47:18.850Z,1880
2018-02-17T09:48:27.708Z,1796
2018-02-17T09:49:36.554Z,1640
2018-02-17T09:50:45.480Z,1692
2018-02-17T09:51:54.308Z,2036
2018-02-17T09:53:03.240Z,2068
2018-02-17T09:54:12.069Z,2160
2018-02-17T09:55:20.901Z,2124
2018-02-17T09:56:29.727Z,2228
2018-02-17T09:57:38.556Z,2308
2018-02-17T09:58:47.687Z,2496
2018-02-17T09:59:56.789Z,2600
2018-02-17T10:01:05.625Z,2440
2018-02-17T10:02:14.468Z,2252
2018-02-17T10:03:23.303Z,2156
2018-02-17T10:04:32.182Z,2156
2018-02-17T10:05:41.287Z,2028
2018-02-17T10:06:50.171Z,2216
2018-02-17T10:07:59.001Z,2428
2018-02-17T10:09:07.827Z,2736
2018-02-17T10:10:16.804Z,3480
2018-02-17T10:11:25.743Z,4372
2018-02-17T10:12:34.597Z,3904
2018-02-17T10:13:43.745Z,3900
2018-02-17T10:14:52.590Z,3932
2018-02-17T10:16:01.715Z,3988
2018-02-17T10:17:10.557Z,3640
2018-02-17T10:18:19.393Z,4292
2018-02-17T10:19:28.268Z,4504
2018-02-17T10:20:37.050Z,4924
2018-02-17T10:21:46.030Z,4660
2018-02-17T10:22:54.862Z,4716
2018-02-17T10:24:03.969Z,4476
2018-02-17T10:25:13.084Z,4492
2018-02-17T10:26:21.920Z,4376
2018-02-17T10:27:30.750Z,4456
2018-02-17T10:28:39.581Z,5156
2018-02-17T10:29:48.410Z,4656
2018-02-17T10:30:57.240Z,4264
2018-02-17T10:32:06.071Z,3960
2018-02-17T10:33:14.904Z,4264
2018-02-17T10:34:23.742Z,4200
2018-02-17T10:35:33.112Z,4136
2018-02-17T10:36:41.860Z,4112
2018-02-17T10:37:50.691Z,4048
2018-02-17T10:38:59.626Z,4380
2018-02-17T10:40:08.459Z,4476
2018-02-17T10:41:17.288Z,4760
2018-02-17T10:42:26.127Z,4756
2018-02-17T10:43:34.965Z,4756
2018-02-17T10:44:44.048Z,4752
2018-02-17T10:45:52.876Z,4584
2018-02-17T10:47:01.994Z,5500
2018-02-17T10:48:10.832Z,5976
2018-02-17T10:49:19.948Z,5820
2018-02-17T10:50:28.939Z,6324
2018-02-17T10:51:37.761Z,5944
2018-02-17T10:52:46.592Z,5628
2018-02-17T10:53:55.423Z,5132
2018-02-17T10:55:04.257Z,6340
2018-02-17T10:56:13.238Z,6440
2018-02-17T10:57:22.072Z,6616
2018-02-17T10:58:30.901Z,5824
2018-02-17T10:59:39.730Z,4700
2018-02-17T11:00:48.562Z,4604
2018-02-17T11:01:57.443Z,4756
2018-02-17T11:03:06.276Z,5108
2018-02-17T11:04:15.661Z,5564
2018-02-17T11:05:24.771Z,5420
2018-02-17T11:06:33.616Z,5236
2018-02-17T11:07:42.594Z,5888
2018-02-17T11:08:51.427Z,6268
2018-02-17T11:10:00.261Z,5800
2018-02-17T11:11:09.097Z,5132
2018-02-17T11:12:17.975Z,4880
2018-02-17T11:13:27.060Z,5196
2018-02-17T11:14:35.894Z,6232
2018-02-17T11:15:44.725Z,6528
2018-02-17T11:16:53.556Z,6008
2018-02-17T11:18:02.392Z,6076
2018-02-17T11:19:11.274Z,6388
2018-02-17T11:20:20.105Z,6552
2018-02-17T11:21:28.939Z,6476
2018-02-17T11:22:37.772Z,6268
2018-02-17T11:23:46.624Z,5856
2018-02-17T11:24:55.864Z,6688
2018-02-17T11:26:04.698Z,6384
2018-02-17T11:27:13.530Z,5628
2018-02-17T11:28:22.363Z,5444
2018-02-17T11:29:31.469Z,5248
2018-02-17T11:30:40.303Z,5012
2018-02-17T11:31:49.412Z,5380
2018-02-17T11:32:58.244Z,5344
2018-02-17T11:34:07.348Z,5004
2018-02-17T11:35:16.182Z,4892
2018-02-17T11:36:25.112Z,5112
2018-02-17T11:37:33.950Z,5472
2018-02-17T11:38:43.056Z,5852
2018-02-17T11:39:51.888Z,6356
2018-02-17T11:41:00.722Z,6388
2018-02-17T11:42:09.855Z,6324
2018-02-17T11:43:18.688Z,6392
2018-02-17T11:44:27.524Z,6096
2018-02-17T11:45:36.910Z,6212
2018-02-17T11:46:45.741Z,6604
2018-02-17T11:47:54.573Z,6744
2018-02-17T11:49:03.405Z,6752
2018-02-17T11:50:12.238Z,6984
2018-02-17T11:51:21.070Z,7868
2018-02-17T11:52:30.182Z,8464
2018-02-17T11:53:39.330Z,8712
2018-02-17T11:54:48.146Z,8624
2018-02-17T11:55:56.977Z,8236
2018-02-17T11:57:05.810Z,8252
2018-02-17T11:58:14.646Z,9064
2018-02-17T11:59:23.525Z,8632
2018-02-17T12:00:32.361Z,7660
2018-02-17T12:01:41.208Z,7344
2018-02-17T12:02:50.050Z,7028
2018-02-17T12:03:58.858Z,6860
2018-02-17T12:05:07.794Z,6656
2018-02-17T12:06:16.626Z,6812
2018-02-17T12:07:25.457Z,6324
2018-02-17T12:08:34.290Z,5840
2018-02-17T12:09:43.121Z,5952
2018-02-17T12:10:52.206Z,7456
2018-02-17T12:12:01.039Z,8016
2018-02-17T12:13:09.872Z,6840
2018-02-17T12:14:18.710Z,5820
2018-02-17T12:15:27.543Z,5636
2018-02-17T12:16:36.376Z,5404
2018-02-17T12:17:45.210Z,5472
2018-02-17T12:18:54.044Z,5348
2018-02-17T12:20:02.877Z,5440
2018-02-17T12:21:11.988Z,5652
2018-02-17T12:22:20.822Z,5744
2018-02-17T12:23:29.661Z,5220
2018-02-17T12:24:38.498Z,4788
2018-02-17T12:25:47.332Z,4888
2018-02-17T12:26:56.441Z,5528
2018-02-17T12:28:05.423Z,5572
2018-02-17T12:29:14.262Z,5660
2018-02-17T12:30:23.094Z,5492
2018-02-17T12:31:31.924Z,5196
2018-02-17T12:32:40.756Z,5192
2018-02-17T12:33:49.589Z,6228
2018-02-17T12:34:58.426Z,7988
2018-02-17T12:36:07.257Z,8040
2018-02-17T12:37:16.092Z,6956
2018-02-17T12:38:24.924Z,6776
2018-02-17T12:39:33.909Z,6736
2018-02-17T12:40:42.744Z,6384
2018-02-17T12:41:51.578Z,5592
2018-02-17T12:43:00.410Z,5924
2018-02-17T12:44:09.245Z,6400
2018-02-17T12:45:18.329Z,7032
2018-02-17T12:46:27.171Z,8396
2018-02-17T12:47:36.000Z,7880
2018-02-17T12:48:44.835Z,6832
2018-02-17T12:49:53.698Z,7716
2018-02-17T12:51:02.502Z,9108
2018-02-17T12:52:11.334Z,11136
2018-02-17T12:53:20.217Z,9372
2018-02-17T12:54:29.000Z,8080
2018-02-17T12:55:37.834Z,6636
2018-02-17T12:56:46.769Z,6632
2018-02-17T12:57:55.604Z,6052
2018-02-17T12:59:04.436Z,5884
2018-02-17T13:00:13.270Z,5752
2018-02-17T13:01:22.104Z,5760
2018-02-17T13:02:30.987Z,8280
2018-02-17T13:03:39.821Z,11320
2018-02-17T13:04:48.655Z,9168
2018-02-17T13:05:57.488Z,7624
2018-02-17T13:07:06.323Z,7620
2018-02-17T13:08:15.156Z,8036
2018-02-17T13:09:23.988Z,7156
2018-02-17T13:10:33.150Z,6876
2018-02-17T13:11:41.983Z,8776
2018-02-17T13:12:50.820Z,8968
2018-02-17T13:13:59.755Z,7988
2018-02-17T13:15:08.592Z,9840
2018-02-17T13:16:17.703Z,9436
2018-02-17T13:17:26.816Z,7360
2018-02-17T13:18:35.664Z,4640
2018-02-17T13:19:44.635Z,4780
2018-02-17T13:20:53.472Z,6328
2018-02-17T13:22:02.305Z,11916
2018-02-17T13:23:11.140Z,13676
2018-02-17T13:24:19.975Z,8460
2018-02-17T13:25:28.809Z,8140
2018-02-17T13:26:37.651Z,10880
2018-02-17T13:27:46.481Z,10832
2018-02-17T13:28:55.315Z,8432
2018-02-17T13:30:04.161Z,6976
2018-02-17T13:31:13.054Z,10108
2018-02-17T13:32:21.905Z,15680
2018-02-17T13:33:30.749Z,20896
2018-02-17T13:34:39.587Z,16960
2018-02-17T13:35:48.423Z,5816
2018-02-17T13:36:57.960Z,4916
2018-02-17T13:38:07.353Z,5076
2018-02-17T13:39:16.471Z,5248
2018-02-17T13:40:25.311Z,5560
2018-02-17T13:41:34.154Z,8168
2018-02-17T13:42:43.001Z,8612
2018-02-17T13:43:51.836Z,12872
2018-02-17T13:45:00.673Z,14784
2018-02-17T13:46:09.508Z,10032
2018-02-17T13:47:18.344Z,10096
2018-02-17T13:48:27.330Z,6916
2018-02-17T13:49:36.166Z,5960
2018-02-17T13:50:45.006Z,6172
2018-02-17T13:51:54.124Z,4908
2018-02-17T13:53:03.241Z,4836
2018-02-17T13:54:12.372Z,4984
2018-02-17T13:55:21.213Z,5244
2018-02-17T13:56:30.051Z,6576
2018-02-17T13:57:38.885Z,7776
2018-02-17T13:58:47.719Z,6952
2018-02-17T13:59:56.856Z,7964
2018-02-17T14:01:05.692Z,9064
2018-02-17T14:02:14.526Z,8464
2018-02-17T14:03:23.358Z,8076
2018-02-17T14:04:32.193Z,6484
2018-02-17T14:05:41.177Z,6884
2018-02-17T14:06:50.047Z,7168
2018-02-17T14:07:58.879Z,8452
2018-02-17T14:09:07.717Z,7956
2018-02-17T14:10:16.559Z,6000
2018-02-17T14:11:25.685Z,5932
2018-02-17T14:12:34.519Z,6232
2018-02-17T14:13:43.356Z,6364
2018-02-17T14:14:52.231Z,7472
2018-02-17T14:16:01.041Z,7028
2018-02-17T14:17:10.166Z,6812
2018-02-17T14:18:19.199Z,7764
2018-02-17T14:19:28.239Z,8344
2018-02-17T14:20:37.106Z,8340
2018-02-17T14:21:45.939Z,7244
2018-02-17T14:22:54.873Z,7288
2018-02-17T14:24:03.710Z,7468
2018-02-17T14:25:12.548Z,8476
2018-02-17T14:26:21.385Z,8240
2018-02-17T14:27:30.564Z,7760
2018-02-17T14:28:39.828Z,7904
2018-02-17T14:29:48.665Z,8436
2018-02-17T14:30:57.500Z,7028
2018-02-17T14:32:06.343Z,6420
2018-02-17T14:33:15.178Z,5976
2018-02-17T14:34:24.596Z,6436
2018-02-17T14:35:33.430Z,5548
2018-02-17T14:36:42.266Z,5004
2018-02-17T14:37:51.100Z,4612
2018-02-17T14:38:59.936Z,4636
2018-02-17T14:40:08.972Z,4856
2018-02-17T14:41:17.762Z,5056
2018-02-17T14:42:26.596Z,5088
2018-02-17T14:43:35.432Z,6032
2018-02-17T14:44:44.271Z,6808
2018-02-17T14:45:53.129Z,7772
2018-02-17T14:47:02.020Z,5580
2018-02-17T14:48:10.855Z,4672
2018-02-17T14:49:19.690Z,4372
2018-02-17T14:50:28.938Z,4368
2018-02-17T14:51:37.877Z,3924
2018-02-17T14:52:46.713Z,4184
2018-02-17T14:53:55.550Z,3844
2018-02-17T14:55:04.394Z,3680
2018-02-17T14:56:13.230Z,4088
2018-02-17T14:57:22.065Z,4600
2018-02-17T14:58:30.899Z,4752
2018-02-17T14:59:39.736Z,4720
2018-02-17T15:00:48.851Z,5340
2018-02-17T15:01:57.686Z,5548
2018-02-17T15:03:06.771Z,5132
2018-02-17T15:04:15.606Z,4792
2018-02-17T15:05:24.443Z,5028
2018-02-17T15:06:33.502Z,5244
2018-02-17T15:07:42.365Z,5088
2018-02-17T15:08:51.423Z,4796
2018-02-17T15:10:01.139Z,4408
2018-02-17T15:11:10.824Z,4388
2018-02-17T15:12:19.657Z,4336
2018-02-17T15:13:28.774Z,4236
2018-02-17T15:14:37.765Z,4312
2018-02-17T15:15:46.608Z,4228
2018-02-17T15:16:55.451Z,5596
2018-02-17T15:18:04.284Z,5880
2018-02-17T15:19:13.123Z,5868
2018-02-17T15:20:22.357Z,5112
2018-02-17T15:21:31.192Z,4528
2018-02-17T15:22:40.026Z,4844
2018-02-17T15:23:48.863Z,5112
2018-02-17T15:24:57.698Z,4544
2018-02-17T15:26:06.686Z,5148
2018-02-17T15:27:15.520Z,4856
2018-02-17T15:28:24.355Z,4140
2018-02-17T15:29:33.189Z,3944
2018-02-17T15:30:42.023Z,3708
2018-02-17T15:31:51.008Z,3412
2018-02-17T15:32:59.848Z,3468
2018-02-17T15:34:08.958Z,3256
2018-02-17T15:35:17.818Z,2976
2018-02-17T15:36:26.630Z,3388
2018-02-17T15:37:35.465Z,3116
2018-02-17T15:38:44.298Z,3700
2018-02-17T15:39:53.132Z,3792
2018-02-17T15:41:01.969Z,4600
2018-02-17T15:42:10.802Z,4624
2018-02-17T15:43:19.789Z,3952
2018-02-17T15:44:28.619Z,3884
2018-02-17T15:45:37.452Z,3500
2018-02-17T15:46:46.287Z,2868
2018-02-17T15:47:55.407Z,2376
2018-02-17T15:49:04.547Z,2124
2018-02-17T15:50:13.377Z,1936
2018-02-17T15:51:22.223Z,1732
2018-02-17T15:52:31.061Z,1620
2018-02-17T15:53:40.175Z,1524
2018-02-17T15:54:49.394Z,1412
2018-02-17T15:55:58.229Z,1312
2018-02-17T15:57:07.062Z,1284
2018-02-17T15:58:16.179Z,1304
2018-02-17T15:59:25.030Z,1340
2018-02-17T16:00:33.849Z,1364
2018-02-17T16:01:42.682Z,1404